sensor_id;sensor_type;location;lat;lon;timestamp;P1;durP1;ratioP1;P2;durP2;ratioP2
52948;SDS011;38812;50.942;3.644;2022-09-01T00:00:38;2.88;;;0.93;;
52948;SDS011;38812;50.942;3.644;2022-09-01T00:03:14;3.03;;;1.10;;
52948;SDS011;38812;50.942;3.644;2022-09-01T00:05:41;7.03;;;1.05;;
52948;SDS011;38812;50.942;3.644;2022-09-01T00:08:08;5.85;;;1.73;;
52948;SDS011;38812;50.942;3.644;2022-09-01T00:10:33;4.43;;;1.13;;
52948;SDS011;38812;50.942;3.644;2022-09-01T00:12:59;4.50;;;1.25;;
52948;SDS011;38812;50.942;3.644;2022-09-01T00:15:24;5.05;;;1.50;;
52948;SDS011;38812;50.942;3.644;2022-09-01T00:17:50;7.30;;;1.55;;
52948;SDS011;38812;50.942;3.644;2022-09-01T00:20:15;2.95;;;1.50;;
52948;SDS011;38812;50.942;3.644;2022-09-01T00:22:40;2.60;;;1.30;;
52948;SDS011;38812;50.942;3.644;2022-09-01T00:25:06;3.78;;;1.20;;
52948;SDS011;38812;50.942;3.644;2022-09-01T00:27:32;8.23;;;1.30;;
52948;SDS011;38812;50.942;3.644;2022-09-01T00:29:58;1.48;;;1.13;;
52948;SDS011;38812;50.942;3.644;2022-09-01T00:32:24;1.17;;;0.80;;
52948;SDS011;38812;50.942;3.644;2022-09-01T00:34:49;3.88;;;1.27;;
52948;SDS011;38812;50.942;3.644;2022-09-01T00:37:15;2.05;;;1.15;;
52948;SDS011;38812;50.942;3.644;2022-09-01T00:39:40;3.50;;;1.40;;
52948;SDS011;38812;50.942;3.644;2022-09-01T00:42:06;3.90;;;1.17;;
52948;SDS011;38812;50.942;3.644;2022-09-01T00:44:31;3.35;;;1.27;;
52948;SDS011;38812;50.942;3.644;2022-09-01T00:46:56;3.75;;;1.17;;
52948;SDS011;38812;50.942;3.644;2022-09-01T00:51:53;7.70;;;1.30;;
52948;SDS011;38812;50.942;3.644;2022-09-01T00:54:22;3.72;;;1.20;;
52948;SDS011;38812;50.942;3.644;2022-09-01T00:56:51;4.70;;;1.20;;
52948;SDS011;38812;50.942;3.644;2022-09-01T00:59:18;2.15;;;0.98;;
52948;SDS011;38812;50.942;3.644;2022-09-01T01:01:46;9.07;;;1.33;;
52948;SDS011;38812;50.942;3.644;2022-09-01T01:04:11;7.07;;;1.15;;
52948;SDS011;38812;50.942;3.644;2022-09-01T01:06:45;1.42;;;0.98;;
52948;SDS011;38812;50.942;3.644;2022-09-01T01:09:14;2.03;;;1.10;;
52948;SDS011;38812;50.942;3.644;2022-09-01T01:11:41;11.38;;;1.45;;
52948;SDS011;38812;50.942;3.644;2022-09-01T01:14:11;1.35;;;1.17;;
52948;SDS011;38812;50.942;3.644;2022-09-01T01:16:42;5.50;;;0.90;;
52948;SDS011;38812;50.942;3.644;2022-09-01T01:25:37;3.67;;;1.10;;
52948;SDS011;38812;50.942;3.644;2022-09-01T01:28:08;1.38;;;0.73;;
52948;SDS011;38812;50.942;3.644;2022-09-01T01:30:34;7.97;;;1.52;;
52948;SDS011;38812;50.942;3.644;2022-09-01T01:33:01;2.70;;;0.93;;
52948;SDS011;38812;50.942;3.644;2022-09-01T01:35:27;4.57;;;1.15;;
52948;SDS011;38812;50.942;3.644;2022-09-01T01:37:53;2.63;;;1.42;;
52948;SDS011;38812;50.942;3.644;2022-09-01T01:40:19;1.85;;;1.10;;
52948;SDS011;38812;50.942;3.644;2022-09-01T01:42:47;3.45;;;1.17;;
52948;SDS011;38812;50.942;3.644;2022-09-01T01:45:17;2.38;;;1.38;;
52948;SDS011;38812;50.942;3.644;2022-09-01T01:47:45;5.55;;;1.10;;
52948;SDS011;38812;50.942;3.644;2022-09-01T01:50:15;3.67;;;1.40;;
52948;SDS011;38812;50.942;3.644;2022-09-01T01:52:41;6.03;;;1.27;;
52948;SDS011;38812;50.942;3.644;2022-09-01T01:55:07;2.17;;;1.10;;
52948;SDS011;38812;50.942;3.644;2022-09-01T01:57:36;2.88;;;1.10;;
52948;SDS011;38812;50.942;3.644;2022-09-01T02:00:03;3.15;;;1.20;;
52948;SDS011;38812;50.942;3.644;2022-09-01T02:02:29;1.63;;;1.10;;
52948;SDS011;38812;50.942;3.644;2022-09-01T02:04:55;2.60;;;1.38;;
52948;SDS011;38812;50.942;3.644;2022-09-01T02:07:20;9.75;;;1.50;;
52948;SDS011;38812;50.942;3.644;2022-09-01T02:09:46;4.43;;;1.55;;
52948;SDS011;38812;50.942;3.644;2022-09-01T02:12:12;5.40;;;1.13;;
52948;SDS011;38812;50.942;3.644;2022-09-01T02:14:38;7.25;;;1.73;;
52948;SDS011;38812;50.942;3.644;2022-09-01T02:17:03;5.25;;;1.27;;
52948;SDS011;38812;50.942;3.644;2022-09-01T02:19:30;2.60;;;1.42;;
52948;SDS011;38812;50.942;3.644;2022-09-01T02:21:55;5.22;;;1.08;;
52948;SDS011;38812;50.942;3.644;2022-09-01T02:24:23;8.93;;;1.70;;
52948;SDS011;38812;50.942;3.644;2022-09-01T02:26:50;3.30;;;1.35;;
52948;SDS011;38812;50.942;3.644;2022-09-01T02:29:19;5.25;;;1.02;;
52948;SDS011;38812;50.942;3.644;2022-09-01T02:31:47;6.95;;;1.58;;
52948;SDS011;38812;50.942;3.644;2022-09-01T02:34:14;4.07;;;1.13;;
52948;SDS011;38812;50.942;3.644;2022-09-01T02:36:45;5.22;;;1.50;;
52948;SDS011;38812;50.942;3.644;2022-09-01T02:39:20;2.47;;;1.60;;
52948;SDS011;38812;50.942;3.644;2022-09-01T02:41:54;4.53;;;1.30;;
52948;SDS011;38812;50.942;3.644;2022-09-01T02:44:19;4.95;;;1.65;;
52948;SDS011;38812;50.942;3.644;2022-09-01T02:46:46;5.30;;;1.40;;
52948;SDS011;38812;50.942;3.644;2022-09-01T02:49:13;6.22;;;1.40;;
52948;SDS011;38812;50.942;3.644;2022-09-01T02:51:45;8.32;;;1.65;;
52948;SDS011;38812;50.942;3.644;2022-09-01T02:54:12;4.35;;;1.60;;
52948;SDS011;38812;50.942;3.644;2022-09-01T02:56:41;4.68;;;1.50;;
52948;SDS011;38812;50.942;3.644;2022-09-01T02:59:08;4.22;;;1.10;;
52948;SDS011;38812;50.942;3.644;2022-09-01T03:01:36;4.78;;;1.48;;
52948;SDS011;38812;50.942;3.644;2022-09-01T03:04:04;3.22;;;1.60;;
52948;SDS011;38812;50.942;3.644;2022-09-01T03:06:32;16.27;;;1.60;;
52948;SDS011;38812;50.942;3.644;2022-09-01T03:08:58;4.63;;;1.58;;
52948;SDS011;38812;50.942;3.644;2022-09-01T03:11:24;1.60;;;1.25;;
52948;SDS011;38812;50.942;3.644;2022-09-01T03:13:51;2.90;;;1.40;;
52948;SDS011;38812;50.942;3.644;2022-09-01T03:16:18;7.68;;;1.30;;
52948;SDS011;38812;50.942;3.644;2022-09-01T03:18:43;3.53;;;1.65;;
52948;SDS011;38812;50.942;3.644;2022-09-01T03:21:09;4.35;;;1.45;;
52948;SDS011;38812;50.942;3.644;2022-09-01T03:23:40;3.70;;;1.63;;
52948;SDS011;38812;50.942;3.644;2022-09-01T03:26:06;12.65;;;1.40;;
52948;SDS011;38812;50.942;3.644;2022-09-01T03:28:31;2.20;;;1.25;;
52948;SDS011;38812;50.942;3.644;2022-09-01T03:30:57;5.80;;;2.03;;
52948;SDS011;38812;50.942;3.644;2022-09-01T03:33:24;2.45;;;1.45;;
52948;SDS011;38812;50.942;3.644;2022-09-01T03:35:51;6.10;;;1.63;;
52948;SDS011;38812;50.942;3.644;2022-09-01T03:38:17;7.85;;;1.45;;
52948;SDS011;38812;50.942;3.644;2022-09-01T03:40:52;3.28;;;1.42;;
52948;SDS011;38812;50.942;3.644;2022-09-01T03:43:23;8.50;;;1.52;;
52948;SDS011;38812;50.942;3.644;2022-09-01T03:45:51;7.07;;;1.73;;
52948;SDS011;38812;50.942;3.644;2022-09-01T03:48:19;3.80;;;1.30;;
52948;SDS011;38812;50.942;3.644;2022-09-01T03:50:46;2.20;;;1.50;;
52948;SDS011;38812;50.942;3.644;2022-09-01T03:53:13;3.58;;;1.40;;
52948;SDS011;38812;50.942;3.644;2022-09-01T03:55:40;6.88;;;1.50;;
52948;SDS011;38812;50.942;3.644;2022-09-01T03:58:09;7.22;;;1.83;;
52948;SDS011;38812;50.942;3.644;2022-09-01T04:00:40;3.40;;;1.10;;
52948;SDS011;38812;50.942;3.644;2022-09-01T04:03:09;2.93;;;1.30;;
52948;SDS011;38812;50.942;3.644;2022-09-01T04:05:36;4.32;;;1.55;;
52948;SDS011;38812;50.942;3.644;2022-09-01T04:08:05;3.10;;;1.10;;
52948;SDS011;38812;50.942;3.644;2022-09-01T04:10:34;2.70;;;1.42;;
52948;SDS011;38812;50.942;3.644;2022-09-01T04:13:02;7.72;;;1.58;;
52948;SDS011;38812;50.942;3.644;2022-09-01T04:15:29;12.75;;;1.73;;
52948;SDS011;38812;50.942;3.644;2022-09-01T04:17:56;6.07;;;1.48;;
52948;SDS011;38812;50.942;3.644;2022-09-01T04:20:38;5.65;;;2.08;;
52948;SDS011;38812;50.942;3.644;2022-09-01T04:25:41;4.38;;;1.42;;
52948;SDS011;38812;50.942;3.644;2022-09-01T04:28:07;3.15;;;1.60;;
52948;SDS011;38812;50.942;3.644;2022-09-01T04:30:41;8.15;;;1.63;;
52948;SDS011;38812;50.942;3.644;2022-09-01T04:33:07;3.85;;;1.50;;
52948;SDS011;38812;50.942;3.644;2022-09-01T04:35:38;4.78;;;1.75;;
52948;SDS011;38812;50.942;3.644;2022-09-01T04:38:04;7.35;;;1.58;;
52948;SDS011;38812;50.942;3.644;2022-09-01T04:40:32;2.30;;;1.55;;
52948;SDS011;38812;50.942;3.644;2022-09-01T04:43:06;5.03;;;1.73;;
52948;SDS011;38812;50.942;3.644;2022-09-01T04:45:33;3.05;;;1.73;;
52948;SDS011;38812;50.942;3.644;2022-09-01T04:48:01;4.55;;;1.90;;
52948;SDS011;38812;50.942;3.644;2022-09-01T04:50:27;2.67;;;1.60;;
52948;SDS011;38812;50.942;3.644;2022-09-01T04:52:54;4.32;;;1.17;;
52948;SDS011;38812;50.942;3.644;2022-09-01T04:55:22;2.53;;;1.58;;
52948;SDS011;38812;50.942;3.644;2022-09-01T04:57:48;5.47;;;2.00;;
52948;SDS011;38812;50.942;3.644;2022-09-01T05:00:15;3.65;;;1.70;;
52948;SDS011;38812;50.942;3.644;2022-09-01T05:02:49;4.47;;;1.70;;
52948;SDS011;38812;50.942;3.644;2022-09-01T05:05:21;5.88;;;2.08;;
52948;SDS011;38812;50.942;3.644;2022-09-01T05:07:47;3.55;;;1.63;;
52948;SDS011;38812;50.942;3.644;2022-09-01T05:10:16;4.50;;;1.50;;
52948;SDS011;38812;50.942;3.644;2022-09-01T05:12:42;3.15;;;2.05;;
52948;SDS011;38812;50.942;3.644;2022-09-01T05:15:09;9.23;;;1.73;;
52948;SDS011;38812;50.942;3.644;2022-09-01T05:17:36;6.80;;;2.35;;
52948;SDS011;38812;50.942;3.644;2022-09-01T05:20:03;6.63;;;2.13;;
52948;SDS011;38812;50.942;3.644;2022-09-01T05:22:29;5.35;;;1.98;;
52948;SDS011;38812;50.942;3.644;2022-09-01T05:24:56;6.88;;;2.20;;
52948;SDS011;38812;50.942;3.644;2022-09-01T05:27:27;14.55;;;2.33;;
52948;SDS011;38812;50.942;3.644;2022-09-01T05:29:53;7.60;;;1.95;;
52948;SDS011;38812;50.942;3.644;2022-09-01T05:32:18;8.20;;;2.58;;
52948;SDS011;38812;50.942;3.644;2022-09-01T05:34:49;13.10;;;2.67;;
52948;SDS011;38812;50.942;3.644;2022-09-01T05:37:16;17.48;;;2.97;;
52948;SDS011;38812;50.942;3.644;2022-09-01T05:39:42;5.93;;;2.50;;
52948;SDS011;38812;50.942;3.644;2022-09-01T05:42:07;5.88;;;2.58;;
52948;SDS011;38812;50.942;3.644;2022-09-01T05:44:33;8.73;;;2.25;;
52948;SDS011;38812;50.942;3.644;2022-09-01T05:47:07;2.95;;;1.80;;
52948;SDS011;38812;50.942;3.644;2022-09-01T05:49:36;4.25;;;2.42;;
52948;SDS011;38812;50.942;3.644;2022-09-01T05:52:03;6.47;;;2.63;;
52948;SDS011;38812;50.942;3.644;2022-09-01T05:54:29;11.20;;;2.85;;
52948;SDS011;38812;50.942;3.644;2022-09-01T05:57:00;8.57;;;2.03;;
52948;SDS011;38812;50.942;3.644;2022-09-01T05:59:27;12.85;;;2.30;;
52948;SDS011;38812;50.942;3.644;2022-09-01T06:01:55;5.40;;;2.42;;
52948;SDS011;38812;50.942;3.644;2022-09-01T06:04:21;10.73;;;2.60;;
52948;SDS011;38812;50.942;3.644;2022-09-01T06:06:51;10.07;;;2.85;;
52948;SDS011;38812;50.942;3.644;2022-09-01T06:09:19;5.50;;;2.40;;
52948;SDS011;38812;50.942;3.644;2022-09-01T06:11:47;4.43;;;2.30;;
52948;SDS011;38812;50.942;3.644;2022-09-01T06:14:13;8.20;;;2.55;;
52948;SDS011;38812;50.942;3.644;2022-09-01T06:16:39;13.30;;;2.83;;
52948;SDS011;38812;50.942;3.644;2022-09-01T06:19:06;5.28;;;2.78;;
52948;SDS011;38812;50.942;3.644;2022-09-01T06:21:32;8.18;;;3.30;;
52948;SDS011;38812;50.942;3.644;2022-09-01T06:23:58;8.68;;;2.90;;
52948;SDS011;38812;50.942;3.644;2022-09-01T06:26:26;6.53;;;2.40;;
52948;SDS011;38812;50.942;3.644;2022-09-01T06:28:54;5.25;;;2.95;;
52948;SDS011;38812;50.942;3.644;2022-09-01T06:31:21;4.50;;;3.22;;
52948;SDS011;38812;50.942;3.644;2022-09-01T06:33:52;10.18;;;3.47;;
52948;SDS011;38812;50.942;3.644;2022-09-01T06:36:22;12.57;;;3.00;;
52948;SDS011;38812;50.942;3.644;2022-09-01T06:38:50;6.13;;;3.53;;
52948;SDS011;38812;50.942;3.644;2022-09-01T06:41:17;9.88;;;3.13;;
52948;SDS011;38812;50.942;3.644;2022-09-01T06:43:49;8.38;;;3.25;;
52948;SDS011;38812;50.942;3.644;2022-09-01T06:46:16;10.90;;;3.55;;
52948;SDS011;38812;50.942;3.644;2022-09-01T06:48:44;7.53;;;3.00;;
52948;SDS011;38812;50.942;3.644;2022-09-01T06:51:10;8.60;;;3.70;;
52948;SDS011;38812;50.942;3.644;2022-09-01T06:53:41;8.48;;;3.28;;
52948;SDS011;38812;50.942;3.644;2022-09-01T06:56:08;8.40;;;3.90;;
52948;SDS011;38812;50.942;3.644;2022-09-01T06:58:41;11.75;;;3.53;;
52948;SDS011;38812;50.942;3.644;2022-09-01T07:01:11;9.45;;;3.78;;
52948;SDS011;38812;50.942;3.644;2022-09-01T07:03:39;6.82;;;3.50;;
52948;SDS011;38812;50.942;3.644;2022-09-01T07:06:05;9.05;;;3.83;;
52948;SDS011;38812;50.942;3.644;2022-09-01T07:08:31;10.15;;;3.05;;
52948;SDS011;38812;50.942;3.644;2022-09-01T07:11:03;7.60;;;4.05;;
52948;SDS011;38812;50.942;3.644;2022-09-01T07:13:31;8.70;;;3.22;;
52948;SDS011;38812;50.942;3.644;2022-09-01T07:15:58;7.05;;;3.70;;
52948;SDS011;38812;50.942;3.644;2022-09-01T07:18:24;8.75;;;3.70;;
52948;SDS011;38812;50.942;3.644;2022-09-01T07:20:51;9.77;;;3.78;;
52948;SDS011;38812;50.942;3.644;2022-09-01T07:23:18;8.98;;;3.65;;
52948;SDS011;38812;50.942;3.644;2022-09-01T07:25:47;13.05;;;3.60;;
52948;SDS011;38812;50.942;3.644;2022-09-01T07:28:15;6.35;;;3.25;;
52948;SDS011;38812;50.942;3.644;2022-09-01T07:30:44;7.18;;;3.90;;
52948;SDS011;38812;50.942;3.644;2022-09-01T07:33:12;11.85;;;3.85;;
52948;SDS011;38812;50.942;3.644;2022-09-01T07:35:44;10.30;;;3.85;;
52948;SDS011;38812;50.942;3.644;2022-09-01T07:38:10;8.10;;;4.10;;
52948;SDS011;38812;50.942;3.644;2022-09-01T07:40:36;11.35;;;3.80;;
52948;SDS011;38812;50.942;3.644;2022-09-01T07:43:24;8.25;;;3.60;;
52948;SDS011;38812;50.942;3.644;2022-09-01T07:45:51;14.32;;;4.43;;
52948;SDS011;38812;50.942;3.644;2022-09-01T07:48:19;7.93;;;4.03;;
52948;SDS011;38812;50.942;3.644;2022-09-01T07:50:48;10.75;;;4.18;;
52948;SDS011;38812;50.942;3.644;2022-09-01T07:53:17;9.95;;;4.47;;
52948;SDS011;38812;50.942;3.644;2022-09-01T07:55:46;8.00;;;3.67;;
52948;SDS011;38812;50.942;3.644;2022-09-01T07:58:15;8.50;;;4.75;;
52948;SDS011;38812;50.942;3.644;2022-09-01T08:00:41;15.20;;;4.15;;
52948;SDS011;38812;50.942;3.644;2022-09-01T08:03:10;12.63;;;4.93;;
52948;SDS011;38812;50.942;3.644;2022-09-01T08:05:36;7.15;;;3.70;;
52948;SDS011;38812;50.942;3.644;2022-09-01T08:08:02;7.47;;;3.60;;
52948;SDS011;38812;50.942;3.644;2022-09-01T08:10:28;10.25;;;3.80;;
52948;SDS011;38812;50.942;3.644;2022-09-01T08:12:54;10.55;;;3.97;;
52948;SDS011;38812;50.942;3.644;2022-09-01T08:15:20;12.98;;;3.42;;
52948;SDS011;38812;50.942;3.644;2022-09-01T08:17:46;10.82;;;4.32;;
52948;SDS011;38812;50.942;3.644;2022-09-01T08:20:11;10.02;;;4.60;;
52948;SDS011;38812;50.942;3.644;2022-09-01T08:22:37;6.15;;;3.33;;
52948;SDS011;38812;50.942;3.644;2022-09-01T08:25:07;5.57;;;3.60;;
52948;SDS011;38812;50.942;3.644;2022-09-01T08:27:34;10.13;;;4.20;;
52948;SDS011;38812;50.942;3.644;2022-09-01T08:30:03;10.65;;;4.05;;
52948;SDS011;38812;50.942;3.644;2022-09-01T08:32:31;11.32;;;4.43;;
52948;SDS011;38812;50.942;3.644;2022-09-01T08:34:56;16.02;;;4.13;;
52948;SDS011;38812;50.942;3.644;2022-09-01T08:37:22;11.75;;;4.00;;
52948;SDS011;38812;50.942;3.644;2022-09-01T08:39:47;8.70;;;3.70;;
52948;SDS011;38812;50.942;3.644;2022-09-01T08:45:07;9.73;;;3.55;;
52948;SDS011;38812;50.942;3.644;2022-09-01T08:47:39;7.10;;;4.20;;
52948;SDS011;38812;50.942;3.644;2022-09-01T08:50:05;7.13;;;3.70;;
52948;SDS011;38812;50.942;3.644;2022-09-01T08:52:44;4.70;;;3.58;;
52948;SDS011;38812;50.942;3.644;2022-09-01T08:55:17;5.88;;;4.00;;
52948;SDS011;38812;50.942;3.644;2022-09-01T08:58:04;6.95;;;3.75;;
52948;SDS011;38812;50.942;3.644;2022-09-01T09:00:37;5.60;;;3.22;;
52948;SDS011;38812;50.942;3.644;2022-09-01T09:03:31;9.13;;;3.47;;
52948;SDS011;38812;50.942;3.644;2022-09-01T09:08:54;8.18;;;3.53;;
52948;SDS011;38812;50.942;3.644;2022-09-01T09:17:09;5.40;;;2.92;;
52948;SDS011;38812;50.942;3.644;2022-09-01T09:19:38;9.85;;;3.28;;
52948;SDS011;38812;50.942;3.644;2022-09-01T09:22:07;7.80;;;2.83;;
52948;SDS011;38812;50.942;3.644;2022-09-01T09:27:35;9.43;;;3.47;;
52948;SDS011;38812;50.942;3.644;2022-09-01T09:30:03;13.88;;;3.47;;
52948;SDS011;38812;50.942;3.644;2022-09-01T09:32:48;10.98;;;3.40;;
52948;SDS011;38812;50.942;3.644;2022-09-01T09:35:18;7.32;;;2.83;;
52948;SDS011;38812;50.942;3.644;2022-09-01T09:37:47;6.45;;;3.58;;
52948;SDS011;38812;50.942;3.644;2022-09-01T09:40:18;12.88;;;3.10;;
52948;SDS011;38812;50.942;3.644;2022-09-01T09:48:00;8.45;;;3.10;;
52948;SDS011;38812;50.942;3.644;2022-09-01T09:50:34;7.18;;;2.95;;
52948;SDS011;38812;50.942;3.644;2022-09-01T09:53:10;5.43;;;3.08;;
52948;SDS011;38812;50.942;3.644;2022-09-01T09:58:22;11.38;;;3.35;;
52948;SDS011;38812;50.942;3.644;2022-09-01T10:03:34;6.97;;;3.25;;
52948;SDS011;38812;50.942;3.644;2022-09-01T10:06:01;6.40;;;3.08;;
52948;SDS011;38812;50.942;3.644;2022-09-01T10:10:54;12.77;;;3.03;;
52948;SDS011;38812;50.942;3.644;2022-09-01T10:13:21;6.97;;;3.22;;
52948;SDS011;38812;50.942;3.644;2022-09-01T10:15:49;4.90;;;2.78;;
52948;SDS011;38812;50.942;3.644;2022-09-01T10:18:21;13.85;;;3.15;;
52948;SDS011;38812;50.942;3.644;2022-09-01T10:20:52;4.93;;;2.67;;
52948;SDS011;38812;50.942;3.644;2022-09-01T10:23:24;5.30;;;2.70;;
52948;SDS011;38812;50.942;3.644;2022-09-01T10:25:52;5.65;;;2.35;;
52948;SDS011;38812;50.942;3.644;2022-09-01T10:28:25;5.90;;;2.63;;
52948;SDS011;38812;50.942;3.644;2022-09-01T10:30:54;15.02;;;3.00;;
52948;SDS011;38812;50.942;3.644;2022-09-01T10:33:20;6.05;;;3.17;;
52948;SDS011;38812;50.942;3.644;2022-09-01T10:35:52;3.15;;;2.03;;
52948;SDS011;38812;50.942;3.644;2022-09-01T10:38:23;3.03;;;2.38;;
52948;SDS011;38812;50.942;3.644;2022-09-01T10:40:51;4.65;;;2.50;;
52948;SDS011;38812;50.942;3.644;2022-09-01T10:43:33;3.33;;;2.00;;
52948;SDS011;38812;50.942;3.644;2022-09-01T10:48:46;4.07;;;1.83;;
52948;SDS011;38812;50.942;3.644;2022-09-01T10:56:21;6.75;;;2.08;;
52948;SDS011;38812;50.942;3.644;2022-09-01T11:04:18;4.18;;;2.28;;
52948;SDS011;38812;50.942;3.644;2022-09-01T11:10:05;5.75;;;1.70;;
52948;SDS011;38812;50.942;3.644;2022-09-01T11:17:24;9.23;;;2.28;;
52948;SDS011;38812;50.942;3.644;2022-09-01T11:30:17;11.50;;;2.10;;
52948;SDS011;38812;50.942;3.644;2022-09-01T11:32:46;4.20;;;2.53;;
52948;SDS011;38812;50.942;3.644;2022-09-01T11:35:19;5.75;;;2.10;;
52948;SDS011;38812;50.942;3.644;2022-09-01T11:37:50;9.68;;;2.13;;
52948;SDS011;38812;50.942;3.644;2022-09-01T11:40:23;2.55;;;2.33;;
52948;SDS011;38812;50.942;3.644;2022-09-01T11:42:51;12.40;;;3.13;;
52948;SDS011;38812;50.942;3.644;2022-09-01T11:45:29;5.75;;;2.53;;
52948;SDS011;38812;50.942;3.644;2022-09-01T11:47:59;5.05;;;2.30;;
52948;SDS011;38812;50.942;3.644;2022-09-01T11:50:31;9.13;;;2.67;;
52948;SDS011;38812;50.942;3.644;2022-09-01T11:52:59;3.90;;;2.35;;
52948;SDS011;38812;50.942;3.644;2022-09-01T11:55:44;9.35;;;2.08;;
52948;SDS011;38812;50.942;3.644;2022-09-01T12:00:52;5.82;;;2.20;;
52948;SDS011;38812;50.942;3.644;2022-09-01T12:05:51;3.70;;;1.80;;
52948;SDS011;38812;50.942;3.644;2022-09-01T12:08:23;8.35;;;1.70;;
52948;SDS011;38812;50.942;3.644;2022-09-01T12:10:59;6.55;;;1.75;;
52948;SDS011;38812;50.942;3.644;2022-09-01T12:13:31;4.88;;;1.95;;
52948;SDS011;38812;50.942;3.644;2022-09-01T12:15:58;7.05;;;2.08;;
52948;SDS011;38812;50.942;3.644;2022-09-01T12:18:27;6.28;;;2.10;;
52948;SDS011;38812;50.942;3.644;2022-09-01T12:20:56;2.75;;;2.03;;
52948;SDS011;38812;50.942;3.644;2022-09-01T12:23:33;5.47;;;1.60;;
52948;SDS011;38812;50.942;3.644;2022-09-01T12:26:01;4.03;;;1.90;;
52948;SDS011;38812;50.942;3.644;2022-09-01T12:28:30;7.20;;;1.90;;
52948;SDS011;38812;50.942;3.644;2022-09-01T12:31:01;4.30;;;1.58;;
52948;SDS011;38812;50.942;3.644;2022-09-01T12:33:30;4.38;;;1.90;;
52948;SDS011;38812;50.942;3.644;2022-09-01T12:36:39;2.60;;;1.65;;
52948;SDS011;38812;50.942;3.644;2022-09-01T12:38:48;3.05;;;1.60;;
52948;SDS011;38812;50.942;3.644;2022-09-01T12:46:54;2.97;;;1.70;;
52948;SDS011;38812;50.942;3.644;2022-09-01T12:49:25;2.10;;;1.70;;
52948;SDS011;38812;50.942;3.644;2022-09-01T12:54:40;9.43;;;1.90;;
52948;SDS011;38812;50.942;3.644;2022-09-01T12:57:05;8.10;;;1.88;;
52948;SDS011;38812;50.942;3.644;2022-09-01T12:59:31;7.38;;;1.75;;
52948;SDS011;38812;50.942;3.644;2022-09-01T13:01:57;3.20;;;1.70;;
52948;SDS011;38812;50.942;3.644;2022-09-01T13:04:42;4.75;;;1.67;;
52948;SDS011;38812;50.942;3.644;2022-09-01T13:07:08;6.65;;;2.55;;
52948;SDS011;38812;50.942;3.644;2022-09-01T13:09:33;3.47;;;1.45;;
52948;SDS011;38812;50.942;3.644;2022-09-01T13:12:15;2.97;;;1.30;;
52948;SDS011;38812;50.942;3.644;2022-09-01T13:14:42;4.55;;;1.25;;
52948;SDS011;38812;50.942;3.644;2022-09-01T13:17:07;1.75;;;1.42;;
52948;SDS011;38812;50.942;3.644;2022-09-01T13:19:33;7.45;;;1.73;;
52948;SDS011;38812;50.942;3.644;2022-09-01T13:21:58;1.63;;;1.38;;
52948;SDS011;38812;50.942;3.644;2022-09-01T13:24:24;5.68;;;1.38;;
52948;SDS011;38812;50.942;3.644;2022-09-01T13:26:49;4.97;;;1.40;;
52948;SDS011;38812;50.942;3.644;2022-09-01T13:29:19;7.43;;;1.52;;
52948;SDS011;38812;50.942;3.644;2022-09-01T13:31:45;1.83;;;1.40;;
52948;SDS011;38812;50.942;3.644;2022-09-01T13:34:10;2.33;;;1.33;;
52948;SDS011;38812;50.942;3.644;2022-09-01T13:36:36;13.05;;;1.60;;
52948;SDS011;38812;50.942;3.644;2022-09-01T13:39:01;3.28;;;1.40;;
52948;SDS011;38812;50.942;3.644;2022-09-01T13:41:26;7.90;;;1.90;;
52948;SDS011;38812;50.942;3.644;2022-09-01T13:43:52;6.55;;;1.40;;
52948;SDS011;38812;50.942;3.644;2022-09-01T13:46:17;5.13;;;1.48;;
52948;SDS011;38812;50.942;3.644;2022-09-01T13:48:43;6.35;;;2.38;;
52948;SDS011;38812;50.942;3.644;2022-09-01T13:51:08;2.40;;;1.25;;
52948;SDS011;38812;50.942;3.644;2022-09-01T13:53:34;5.85;;;1.50;;
52948;SDS011;38812;50.942;3.644;2022-09-01T13:55:59;5.55;;;1.58;;
52948;SDS011;38812;50.942;3.644;2022-09-01T13:58:25;4.65;;;1.60;;
52948;SDS011;38812;50.942;3.644;2022-09-01T14:00:50;1.77;;;1.20;;
52948;SDS011;38812;50.942;3.644;2022-09-01T14:03:17;2.25;;;1.40;;
52948;SDS011;38812;50.942;3.644;2022-09-01T14:05:47;8.20;;;1.95;;
52948;SDS011;38812;50.942;3.644;2022-09-01T14:08:14;5.95;;;2.15;;
52948;SDS011;38812;50.942;3.644;2022-09-01T14:10:42;3.40;;;2.92;;
52948;SDS011;38812;50.942;3.644;2022-09-01T14:13:13;3.63;;;1.55;;
52948;SDS011;38812;50.942;3.644;2022-09-01T14:15:39;6.28;;;1.65;;
52948;SDS011;38812;50.942;3.644;2022-09-01T14:18:05;3.15;;;1.42;;
52948;SDS011;38812;50.942;3.644;2022-09-01T14:20:36;2.22;;;1.48;;
52948;SDS011;38812;50.942;3.644;2022-09-01T14:23:05;5.93;;;1.70;;
52948;SDS011;38812;50.942;3.644;2022-09-01T14:25:32;3.70;;;1.40;;
52948;SDS011;38812;50.942;3.644;2022-09-01T14:27:59;2.47;;;1.50;;
52948;SDS011;38812;50.942;3.644;2022-09-01T14:30:26;2.53;;;1.30;;
52948;SDS011;38812;50.942;3.644;2022-09-01T14:32:53;4.57;;;1.23;;
52948;SDS011;38812;50.942;3.644;2022-09-01T14:35:19;4.03;;;1.35;;
52948;SDS011;38812;50.942;3.644;2022-09-01T14:37:50;3.53;;;1.45;;
52948;SDS011;38812;50.942;3.644;2022-09-01T14:40:17;4.57;;;1.48;;
52948;SDS011;38812;50.942;3.644;2022-09-01T14:42:45;2.17;;;1.40;;
52948;SDS011;38812;50.942;3.644;2022-09-01T14:45:13;4.70;;;1.33;;
52948;SDS011;38812;50.942;3.644;2022-09-01T14:47:43;2.75;;;1.45;;
52948;SDS011;38812;50.942;3.644;2022-09-01T14:50:09;3.83;;;1.75;;
52948;SDS011;38812;50.942;3.644;2022-09-01T14:52:36;12.68;;;1.63;;
52948;SDS011;38812;50.942;3.644;2022-09-01T14:55:02;5.30;;;1.35;;
52948;SDS011;38812;50.942;3.644;2022-09-01T14:57:29;5.22;;;1.55;;
52948;SDS011;38812;50.942;3.644;2022-09-01T14:59:54;2.80;;;1.30;;
52948;SDS011;38812;50.942;3.644;2022-09-01T15:02:20;5.47;;;1.67;;
52948;SDS011;38812;50.942;3.644;2022-09-01T15:04:45;2.50;;;1.27;;
52948;SDS011;38812;50.942;3.644;2022-09-01T15:07:11;5.63;;;1.63;;
52948;SDS011;38812;50.942;3.644;2022-09-01T15:09:37;4.88;;;1.23;;
52948;SDS011;38812;50.942;3.644;2022-09-01T15:12:02;14.10;;;2.15;;
52948;SDS011;38812;50.942;3.644;2022-09-01T15:14:30;2.25;;;1.50;;
52948;SDS011;38812;50.942;3.644;2022-09-01T15:16:56;3.97;;;1.20;;
52948;SDS011;38812;50.942;3.644;2022-09-01T15:19:21;13.65;;;2.22;;
52948;SDS011;38812;50.942;3.644;2022-09-01T15:21:46;4.30;;;1.23;;
52948;SDS011;38812;50.942;3.644;2022-09-01T15:24:12;3.08;;;1.63;;
52948;SDS011;38812;50.942;3.644;2022-09-01T15:26:38;5.55;;;1.50;;
52948;SDS011;38812;50.942;3.644;2022-09-01T15:29:05;3.35;;;1.15;;
52948;SDS011;38812;50.942;3.644;2022-09-01T15:31:31;6.00;;;1.80;;
52948;SDS011;38812;50.942;3.644;2022-09-01T15:33:58;2.05;;;1.38;;
52948;SDS011;38812;50.942;3.644;2022-09-01T15:36:25;10.02;;;1.52;;
52948;SDS011;38812;50.942;3.644;2022-09-01T15:38:52;4.22;;;1.30;;
52948;SDS011;38812;50.942;3.644;2022-09-01T15:41:19;4.15;;;1.38;;
52948;SDS011;38812;50.942;3.644;2022-09-01T15:43:49;1.52;;;1.20;;
52948;SDS011;38812;50.942;3.644;2022-09-01T15:46:16;8.45;;;1.35;;
52948;SDS011;38812;50.942;3.644;2022-09-01T15:48:42;1.67;;;1.40;;
52948;SDS011;38812;50.942;3.644;2022-09-01T15:53:51;3.38;;;1.20;;
52948;SDS011;38812;50.942;3.644;2022-09-01T15:56:19;3.80;;;1.50;;
52948;SDS011;38812;50.942;3.644;2022-09-01T15:58:45;6.00;;;1.27;;
52948;SDS011;38812;50.942;3.644;2022-09-01T16:01:12;3.17;;;1.40;;
52948;SDS011;38812;50.942;3.644;2022-09-01T16:03:37;1.67;;;1.30;;
52948;SDS011;38812;50.942;3.644;2022-09-01T16:06:03;10.15;;;2.03;;
52948;SDS011;38812;50.942;3.644;2022-09-01T16:08:28;6.07;;;1.70;;
52948;SDS011;38812;50.942;3.644;2022-09-01T16:10:54;5.70;;;1.60;;
52948;SDS011;38812;50.942;3.644;2022-09-01T16:13:20;1.70;;;1.60;;
52948;SDS011;38812;50.942;3.644;2022-09-01T16:15:48;2.55;;;1.58;;
52948;SDS011;38812;50.942;3.644;2022-09-01T16:24:02;2.45;;;1.25;;